Time;durP1;ratioP1;P1;durP2;ratioP2;P2;SDS_P1;SDS_P2;PMS_P1;PMS_P2;Temp;Humidity;BMP_temperature;BMP_pressure;BME280_temperature;BME280_humidity;BME280_pressure;Samples;Min_cycle;Max_cycle;Signal;HPM_P1;HPM_P2
2021/07/05 00:00:25;;;;;;;6.70;6.10;;;;;;;;;;5033183;28;20495;-57
2021/07/05 00:02:53;;;;;;;6.60;5.90;;;;;;;;;;5033336;28;20441;-56
2021/07/05 00:05:21;;;;;;;6.67;5.80;;;;;;;;;;5033417;28;20589;-56
2021/07/05 00:07:49;;;;;;;6.10;5.40;;;;;;;;;;5033364;28;20930;-56
2021/07/05 00:10:17;;;;;;;8.13;6.53;;;;;;;;;;5033861;28;20449;-57
2021/07/05 00:12:46;;;;;;;6.40;5.80;;;;;;;;;;5034161;28;20488;-56
2021/07/05 00:15:14;;;;;;;8.03;6.77;;;;;;;;;;5033268;28;20791;-56
2021/07/05 00:17:41;;;;;;;7.53;6.43;;;;;;;;;;5032944;28;20476;-56
2021/07/05 00:20:10;;;;;;;6.87;6.27;;;;;;;;;;5033163;28;20507;-56
2021/07/05 00:22:38;;;;;;;6.93;6.00;;;;;;;;;;5033281;28;20524;-56
2021/07/05 00:25:05;;;;;;;13.60;6.03;;;;;;;;;;5036946;28;20853;-56
2021/07/05 00:27:33;;;;;;;6.13;5.53;;;;;;;;;;5036925;28;20530;-57
2021/07/05 00:30:02;;;;;;;7.80;5.77;;;;;;;;;;5037361;28;20448;-57
2021/07/05 00:32:29;;;;;;;9.17;5.77;;;;;;;;;;5037315;28;20471;-56
2021/07/05 00:34:56;;;;;;;7.43;5.97;;;;;;;;;;5037354;28;20453;-56
2021/07/05 00:37:23;;;;;;;6.43;5.83;;;;;;;;;;5037266;28;20878;-57
2021/07/05 00:39:51;;;;;;;5.83;5.30;;;;;;;;;;5037394;28;20792;-56
2021/07/05 00:42:18;;;;;;;5.93;5.13;;;;;;;;;;5036880;28;20464;-57
2021/07/05 00:44:45;;;;;;;7.77;5.10;;;;;;;;;;5037146;28;20444;-57
2021/07/05 00:47:14;;;;;;;5.43;4.93;;;;;;;;;;5036985;28;20461;-56
2021/07/05 00:49:41;;;;;;;5.97;5.40;;;;;;;;;;5036823;28;20510;-57
2021/07/05 00:52:09;;;;;;;5.60;5.00;;;;;;;;;;5036965;28;20457;-56
2021/07/05 00:54:36;;;;;;;5.73;5.20;;;;;;;;;;5036690;28;20996;-57
2021/07/05 00:57:04;;;;;;;5.80;5.20;;;;;;;;;;5036578;28;20879;-56
2021/07/05 00:59:32;;;;;;;7.40;5.47;;;;;;;;;;5036565;28;20452;-57
2021/07/05 01:02:00;;;;;;;8.43;5.00;;;;;;;;;;5036410;28;20498;-57
2021/07/05 01:04:28;;;;;;;6.63;4.90;;;;;;;;;;5037688;28;20441;-56
2021/07/05 01:06:55;;;;;;;7.97;4.67;;;;;;;;;;5036405;28;20460;-56
2021/07/05 01:09:23;;;;;;;6.17;5.00;;;;;;;;;;5036677;28;20496;-57
2021/07/05 01:11:50;;;;;;;7.67;5.60;;;;;;;;;;5036530;28;20449;-56
2021/07/05 01:14:17;;;;;;;5.87;5.33;;;;;;;;;;5036160;28;20522;-57
2021/07/05 01:16:44;;;;;;;7.53;4.87;;;;;;;;;;5036591;28;20518;-57
2021/07/05 01:19:12;;;;;;;5.60;5.10;;;;;;;;;;5036889;28;20499;-57
2021/07/05 01:21:40;;;;;;;7.03;4.60;;;;;;;;;;5036853;28;20453;-57
2021/07/05 01:24:08;;;;;;;7.13;6.07;;;;;;;;;;5036429;28;20444;-57
2021/07/05 01:26:35;;;;;;;5.83;5.33;;;;;;;;;;5036443;28;20480;-57
2021/07/05 01:29:02;;;;;;;6.13;5.53;;;;;;;;;;5036088;28;20995;-57
2021/07/05 01:31:29;;;;;;;7.00;5.40;;;;;;;;;;5036279;28;20441;-57
2021/07/05 01:33:57;;;;;;;7.63;6.27;;;;;;;;;;5036471;28;20488;-58
2021/07/05 01:36:25;;;;;;;6.33;5.67;;;;;;;;;;5036920;28;20487;-60
2021/07/05 01:38:53;;;;;;;8.97;5.30;;;;;;;;;;5035629;28;20941;-60
2021/07/05 01:41:21;;;;;;;6.40;5.23;;;;;;;;;;5035739;28;20929;-59
2021/07/05 01:43:48;;;;;;;7.03;4.67;;;;;;;;;;5035641;28;20441;-59
2021/07/05 01:46:16;;;;;;;9.93;5.30;;;;;;;;;;5035740;28;20465;-60
2021/07/05 01:48:43;;;;;;;6.43;5.47;;;;;;;;;;5035450;28;20510;-60
2021/07/05 01:51:10;;;;;;;7.10;4.93;;;;;;;;;;5035803;28;20511;-60
2021/07/05 01:53:38;;;;;;;7.00;5.20;;;;;;;;;;5035335;28;20534;-60
2021/07/05 01:56:07;;;;;;;6.17;5.57;;;;;;;;;;5035369;28;20465;-60
2021/07/05 01:58:34;;;;;;;7.13;5.60;;;;;;;;;;5035661;28;20491;-60
2021/07/05 02:01:01;;;;;;;8.13;5.30;;;;;;;;;;5035550;28;20496;-61
2021/07/05 02:03:29;;;;;;;6.00;5.40;;;;;;;;;;5035488;28;20445;-61
2021/07/05 02:05:56;;;;;;;5.70;5.20;;;;;;;;;;5036051;28;20477;-60
2021/07/05 02:08:23;;;;;;;10.60;5.80;;;;;;;;;;5035455;28;20452;-61
2021/07/05 02:10:51;;;;;;;6.47;5.90;;;;;;;;;;5035001;28;20520;-61
2021/07/05 02:13:21;;;;;;;5.83;5.33;;;;;;;;;;5035759;28;21099;-61
2021/07/05 02:15:49;;;;;;;6.50;5.60;;;;;;;;;;5034967;28;20461;-61
2021/07/05 02:18:16;;;;;;;7.40;5.90;;;;;;;;;;5035295;28;20511;-60
2021/07/05 02:20:43;;;;;;;6.80;6.00;;;;;;;;;;5035158;28;20445;-60
2021/07/05 02:23:11;;;;;;;7.30;5.77;;;;;;;;;;5034955;28;20445;-60
2021/07/05 02:25:39;;;;;;;10.47;6.80;;;;;;;;;;5034933;28;20457;-61
2021/07/05 02:28:08;;;;;;;7.90;7.07;;;;;;;;;;5050765;22;20566;-60
2021/07/05 02:30:37;;;;;;;9.30;7.63;;;;;;;;;;5034835;28;20445;-60
2021/07/05 02:33:05;;;;;;;10.07;7.50;;;;;;;;;;5034725;28;20941;-60
2021/07/05 02:35:35;;;;;;;12.20;8.90;;;;;;;;;;5034723;28;20514;-61
2021/07/05 02:38:02;;;;;;;11.13;7.20;;;;;;;;;;5035119;28;20519;-60
2021/07/05 02:40:31;;;;;;;10.37;9.37;;;;;;;;;;5034905;28;20837;-60
2021/07/05 02:42:58;;;;;;;12.47;9.33;;;;;;;;;;5034922;28;20444;-59
2021/07/05 02:45:28;;;;;;;12.00;10.80;;;;;;;;;;5035331;28;20448;-60
2021/07/05 02:47:57;;;;;;;12.67;11.47;;;;;;;;;;5033723;28;20473;-60
2021/07/05 02:50:24;;;;;;;14.70;11.20;;;;;;;;;;5035050;28;20448;-60
2021/07/05 02:52:52;;;;;;;13.80;11.63;;;;;;;;;;5035011;28;20441;-60
2021/07/05 02:55:20;;;;;;;14.70;13.10;;;;;;;;;;5034356;28;20476;-60
2021/07/05 02:57:47;;;;;;;14.07;12.47;;;;;;;;;;5034602;28;20468;-60
2021/07/05 03:00:16;;;;;;;14.07;12.77;;;;;;;;;;5034647;28;20460;-60
2021/07/05 03:02:44;;;;;;;15.03;13.13;;;;;;;;;;5034210;28;20953;-60
2021/07/05 03:05:14;;;;;;;12.90;11.60;;;;;;;;;;5034239;28;20511;-60
2021/07/05 03:07:41;;;;;;;14.87;13.47;;;;;;;;;;5034387;28;20477;-60
2021/07/05 03:10:10;;;;;;;14.40;13.10;;;;;;;;;;5034446;28;20447;-60
2021/07/05 03:12:38;;;;;;;15.23;13.43;;;;;;;;;;5034494;28;20498;-60
2021/07/05 03:15:07;;;;;;;17.00;13.50;;;;;;;;;;5034463;28;20473;-60
2021/07/05 03:17:35;;;;;;;17.17;12.13;;;;;;;;;;5033978;28;20984;-61
2021/07/05 03:20:02;;;;;;;15.73;14.13;;;;;;;;;;5033850;28;20449;-60
2021/07/05 03:22:31;;;;;;;14.60;13.20;;;;;;;;;;5033995;28;20453;-60
2021/07/05 03:24:58;;;;;;;15.17;13.30;;;;;;;;;;5033660;28;20494;-60
2021/07/05 03:27:27;;;;;;;14.87;13.47;;;;;;;;;;5033491;28;20488;-60
2021/07/05 03:29:54;;;;;;;14.10;12.80;;;;;;;;;;5033674;28;20508;-60
2021/07/05 03:32:21;;;;;;;13.93;12.73;;;;;;;;;;5033943;28;20506;-60
2021/07/05 03:34:48;;;;;;;13.83;11.73;;;;;;;;;;5033938;28;20480;-60
2021/07/05 03:37:16;;;;;;;11.87;10.73;;;;;;;;;;5033673;28;20487;-60
2021/07/05 03:39:44;;;;;;;11.53;10.37;;;;;;;;;;5033667;28;20445;-59
2021/07/05 03:42:12;;;;;;;12.13;11.07;;;;;;;;;;5034020;28;20805;-61
2021/07/05 03:44:39;;;;;;;11.73;10.50;;;;;;;;;;5033973;28;20454;-60
2021/07/05 03:47:06;;;;;;;11.33;10.23;;;;;;;;;;5033674;28;20479;-59
2021/07/05 03:49:33;;;;;;;11.07;10.07;;;;;;;;;;5033468;28;20449;-60
2021/07/05 03:52:01;;;;;;;11.50;10.40;;;;;;;;;;5033813;28;20449;-61
2021/07/05 03:54:28;;;;;;;11.57;10.60;;;;;;;;;;5033612;28;20484;-61
2021/07/05 03:56:57;;;;;;;12.67;10.60;;;;;;;;;;5033622;28;20461;-61
2021/07/05 03:59:24;;;;;;;10.93;9.97;;;;;;;;;;5033332;28;20447;-60
2021/07/05 04:01:51;;;;;;;10.80;9.80;;;;;;;;;;5033215;28;20511;-60
2021/07/05 04:04:19;;;;;;;12.00;10.70;;;;;;;;;;5033440;28;20960;-61
2021/07/05 04:08:21;;;;;;;10.83;9.70;;;;;;;;;;5112041;27;20556;-61
2021/07/05 04:10:48;;;;;;;14.30;10.47;;;;;;;;;;5111637;28;20442;-60
2021/07/05 04:13:15;;;;;;;11.33;9.87;;;;;;;;;;5112450;28;20518;-61
2021/07/05 04:15:43;;;;;;;10.73;9.30;;;;;;;;;;5112520;28;20441;-61
2021/07/05 04:18:10;;;;;;;10.97;9.87;;;;;;;;;;5112086;28;20458;-61
2021/07/05 04:20:37;;;;;;;11.83;9.50;;;;;;;;;;5112058;28;20525;-61
2021/07/05 04:23:05;;;;;;;11.23;8.13;;;;;;;;;;5113867;28;20438;-61
2021/07/05 04:25:34;;;;;;;10.60;8.03;;;;;;;;;;5112010;28;20870;-59
2021/07/05 04:28:01;;;;;;;9.70;6.77;;;;;;;;;;5111226;28;20485;-61
2021/07/05 04:30:29;;;;;;;9.73;6.70;;;;;;;;;;5111380;28;20507;-60
2021/07/05 04:32:57;;;;;;;9.73;6.87;;;;;;;;;;5111382;28;20450;-61
2021/07/05 04:35:25;;;;;;;6.30;5.47;;;;;;;;;;5111251;28;20966;-60
2021/07/05 04:37:52;;;;;;;6.60;6.00;;;;;;;;;;5111107;28;20518;-60
2021/07/05 04:40:20;;;;;;;7.03;6.00;;;;;;;;;;5111763;28;20445;-60
2021/07/05 04:42:49;;;;;;;6.87;4.70;;;;;;;;;;5112369;28;20445;-61
2021/07/05 04:45:17;;;;;;;7.03;5.37;;;;;;;;;;5113331;28;20441;-61
2021/07/05 04:47:45;;;;;;;5.53;4.90;;;;;;;;;;5114097;28;20892;-61
2021/07/05 04:50:13;;;;;;;6.50;5.00;;;;;;;;;;5114262;28;20446;-61
2021/07/05 04:52:40;;;;;;;10.87;4.97;;;;;;;;;;5113286;28;20459;-60
2021/07/05 04:55:09;;;;;;;8.17;4.50;;;;;;;;;;5114273;28;20494;-61
2021/07/05 04:57:37;;;;;;;4.73;4.33;;;;;;;;;;5114740;28;20473;-61
2021/07/05 05:00:07;;;;;;;5.77;4.00;;;;;;;;;;5112564;28;20495;-61
2021/07/05 05:02:34;;;;;;;5.73;4.00;;;;;;;;;;5111052;28;20449;-60
2021/07/05 05:05:01;;;;;;;6.50;4.20;;;;;;;;;;5110691;28;20445;-60
2021/07/05 05:07:29;;;;;;;6.83;4.40;;;;;;;;;;5110326;28;20488;-61
2021/07/05 05:10:00;;;;;;;6.33;4.43;;;;;;;;;;5110512;28;20441;-61
2021/07/05 05:12:28;;;;;;;5.40;3.70;;;;;;;;;;5110464;28;20453;-61
2021/07/05 05:14:55;;;;;;;8.83;4.23;;;;;;;;;;5110428;28;20453;-61
2021/07/05 05:17:24;;;;;;;4.63;4.20;;;;;;;;;;5109295;28;20969;-61
2021/07/05 05:19:51;;;;;;;5.80;4.13;;;;;;;;;;5096184;28;20848;-60
2021/07/05 05:22:19;;;;;;;6.20;3.17;;;;;;;;;;5096913;28;20845;-61
2021/07/05 05:24:46;;;;;;;6.47;2.83;;;;;;;;;;5096415;28;20526;-62
2021/07/05 05:27:13;;;;;;;5.20;2.80;;;;;;;;;;5096022;28;20504;-63
2021/07/05 05:29:41;;;;;;;3.70;2.80;;;;;;;;;;5096667;28;20442;-62
2021/07/05 05:32:09;;;;;;;4.97;2.53;;;;;;;;;;5096107;28;20448;-63
2021/07/05 05:34:37;;;;;;;3.90;3.20;;;;;;;;;;5096305;28;20454;-63
2021/07/05 05:37:05;;;;;;;4.10;2.53;;;;;;;;;;5096206;28;20462;-62
2021/07/05 05:39:32;;;;;;;3.60;2.87;;;;;;;;;;5096208;28;20442;-62
2021/07/05 05:41:59;;;;;;;4.97;3.17;;;;;;;;;;5096221;28;20439;-62
2021/07/05 05:44:26;;;;;;;3.20;2.63;;;;;;;;;;5095723;28;20446;-62
2021/07/05 05:46:54;;;;;;;5.53;2.47;;;;;;;;;;5095922;28;20485;-61
2021/07/05 05:49:21;;;;;;;5.60;2.80;;;;;;;;;;5095902;28;20772;-63
2021/07/05 05:51:50;;;;;;;4.77;2.20;;;;;;;;;;5095478;28;20492;-63
2021/07/05 05:54:17;;;;;;;3.03;2.43;;;;;;;;;;5095710;28;20452;-62
2021/07/05 05:56:47;;;;;;;2.90;2.03;;;;;;;;;;5095622;28;20471;-63
2021/07/05 05:59:14;;;;;;;5.83;2.77;;;;;;;;;;5095370;28;20545;-63
2021/07/05 06:01:47;;;;;;;2.47;2.03;;;;;;;;;;5095596;28;20446;-62
2021/07/05 06:04:14;;;;;;;4.70;2.53;;;;;;;;;;5095689;28;20438;-62
2021/07/05 06:06:42;;;;;;;3.30;2.30;;;;;;;;;;5095016;28;20894;-62
2021/07/05 06:09:10;;;;;;;5.00;2.33;;;;;;;;;;5095949;28;20515;-61
2021/07/05 06:11:37;;;;;;;3.73;2.07;;;;;;;;;;5095200;28;20519;-63
2021/07/05 06:14:05;;;;;;;4.33;2.57;;;;;;;;;;5095348;28;20516;-64
2021/07/05 06:16:32;;;;;;;2.60;2.40;;;;;;;;;;5095698;28;20457;-63
2021/07/05 06:19:00;;;;;;;4.43;2.40;;;;;;;;;;5095975;28;20527;-62
2021/07/05 06:21:27;;;;;;;4.13;2.73;;;;;;;;;;5097127;28;20445;-63
2021/07/05 06:23:55;;;;;;;4.10;2.40;;;;;;;;;;5099994;28;20445;-62
2021/07/05 06:26:23;;;;;;;3.60;2.50;;;;;;;;;;5099089;28;20465;-64
2021/07/05 06:28:51;;;;;;;4.83;1.67;;;;;;;;;;5099185;28;20502;-62
2021/07/05 06:31:18;;;;;;;4.00;2.10;;;;;;;;;;5097069;28;20449;-62
2021/07/05 06:33:46;;;;;;;4.13;1.83;;;;;;;;;;5097249;28;20531;-62
2021/07/05 06:36:14;;;;;;;2.50;2.00;;;;;;;;;;5096018;28;20520;-61
2021/07/05 06:38:41;;;;;;;3.83;2.23;;;;;;;;;;5096052;28;20450;-63
2021/07/05 06:41:09;;;;;;;3.53;2.30;;;;;;;;;;5095349;28;20454;-63
2021/07/05 06:43:37;;;;;;;2.70;2.33;;;;;;;;;;5095248;28;20559;-62
2021/07/05 06:46:05;;;;;;;5.90;3.17;;;;;;;;;;5094724;28;20443;-60
2021/07/05 06:48:32;;;;;;;3.23;2.63;;;;;;;;;;5094932;28;20833;-63
2021/07/05 06:50:59;;;;;;;3.40;2.37;;;;;;;;;;5095292;28;21018;-62
2021/07/05 06:53:27;;;;;;;7.53;2.17;;;;;;;;;;5094666;28;20454;-62
2021/07/05 06:55:54;;;;;;;2.50;2.00;;;;;;;;;;5095756;28;20485;-61
2021/07/05 06:58:21;;;;;;;5.07;2.40;;;;;;;;;;5094563;28;20897;-62
2021/07/05 07:00:50;;;;;;;5.40;2.10;;;;;;;;;;5094258;28;20848;-62
2021/07/05 07:03:17;;;;;;;3.20;2.30;;;;;;;;;;5094210;28;20865;-62
2021/07/05 07:05:44;;;;;;;5.37;2.40;;;;;;;;;;5094186;28;20464;-62
2021/07/05 07:08:14;;;;;;;4.10;2.37;;;;;;;;;;5093963;28;20547;-62
2021/07/05 07:10:41;;;;;;;3.73;3.20;;;;;;;;;;5094644;28;20502;-63
2021/07/05 07:13:09;;;;;;;5.50;2.03;;;;;;;;;;5093966;28;20852;-61
2021/07/05 07:15:38;;;;;;;23.47;4.13;;;;;;;;;;5094480;28;20464;-62
2021/07/05 07:18:09;;;;;;;3.70;3.10;;;;;;;;;;5098557;28;20918;-62
2021/07/05 07:20:37;;;;;;;3.40;2.43;;;;;;;;;;5100899;28;20437;-63
2021/07/05 07:23:04;;;;;;;7.20;2.90;;;;;;;;;;5102462;28;20472;-63
2021/07/05 07:25:31;;;;;;;3.73;2.30;;;;;;;;;;5102128;28;20450;-62
2021/07/05 07:27:59;;;;;;;3.00;2.63;;;;;;;;;;5096017;28;20485;-62
2021/07/05 07:30:26;;;;;;;2.40;2.00;;;;;;;;;;5095318;28;20495;-60
2021/07/05 07:32:54;;;;;;;4.60;2.90;;;;;;;;;;5093822;28;20917;-62
2021/07/05 07:35:22;;;;;;;3.53;2.30;;;;;;;;;;5094098;28;20630;-62
2021/07/05 07:37:51;;;;;;;2.63;2.00;;;;;;;;;;5093783;28;20466;-62
2021/07/05 07:40:21;;;;;;;2.43;2.23;;;;;;;;;;5093622;28;20438;-63
2021/07/05 07:42:49;;;;;;;2.80;2.60;;;;;;;;;;5093602;28;20503;-59
2021/07/05 07:45:17;;;;;;;3.00;1.77;;;;;;;;;;5093521;28;20453;-62
2021/07/05 07:47:44;;;;;;;2.67;2.13;;;;;;;;;;5093236;28;20485;-63
2021/07/05 07:50:13;;;;;;;3.60;2.90;;;;;;;;;;5093614;28;20523;-62
2021/07/05 07:52:42;;;;;;;4.77;2.60;;;;;;;;;;5093867;28;20504;-63
2021/07/05 07:55:11;;;;;;;2.47;2.27;;;;;;;;;;5093280;28;20450;-61
2021/07/05 07:57:38;;;;;;;3.40;2.63;;;;;;;;;;5093531;28;20462;-63
2021/07/05 08:00:07;;;;;;;4.10;2.20;;;;;;;;;;5093447;28;20943;-63
2021/07/05 08:02:34;;;;;;;2.03;1.50;;;;;;;;;;5093712;28;20442;-63
2021/07/05 08:05:01;;;;;;;3.50;2.00;;;;;;;;;;5093202;28;20446;-63
2021/07/05 08:07:28;;;;;;;2.77;2.50;;;;;;;;;;5093253;28;20489;-61
2021/07/05 08:09:57;;;;;;;2.30;2.07;;;;;;;;;;5093251;28;20502;-62
2021/07/05 08:12:24;;;;;;;2.50;1.77;;;;;;;;;;5092984;28;20440;-63
2021/07/05 08:14:52;;;;;;;2.93;2.03;;;;;;;;;;5092975;28;20921;-62
2021/07/05 08:17:19;;;;;;;2.53;2.03;;;;;;;;;;5093237;28;20460;-62
2021/07/05 08:19:46;;;;;;;2.33;2.07;;;;;;;;;;5093201;28;20455;-62
2021/07/05 08:22:13;;;;;;;2.20;2.00;;;;;;;;;;5093660;28;20512;-63
2021/07/05 08:24:41;;;;;;;2.63;2.00;;;;;;;;;;5093005;28;20519;-63
2021/07/05 08:27:09;;;;;;;2.20;2.00;;;;;;;;;;5101597;22;20574;-59
2021/07/05 08:29:36;;;;;;;3.37;2.80;;;;;;;;;;5032636;28;20500;-57
2021/07/05 08:32:04;;;;;;;2.47;1.80;;;;;;;;;;5032776;28;20473;-59
2021/07/05 08:34:31;;;;;;;2.43;1.87;;;;;;;;;;5032562;28;20445;-58
2021/07/05 08:36:59;;;;;;;1.80;1.70;;;;;;;;;;5032482;28;20502;-57
2021/07/05 08:39:26;;;;;;;2.27;2.07;;;;;;;;;;5032345;28;20494;-59
2021/07/05 08:41:53;;;;;;;2.20;2.00;;;;;;;;;;5032489;28;20456;-60
2021/07/05 08:44:22;;;;;;;2.77;2.20;;;;;;;;;;5032653;28;20444;-60
2021/07/05 08:46:50;;;;;;;2.67;2.47;;;;;;;;;;5032352;28;20527;-59
2021/07/05 08:49:18;;;;;;;2.70;2.00;;;;;;;;;;5032212;28;20535;-59
2021/07/05 08:51:45;;;;;;;2.77;2.20;;;;;;;;;;5032176;28;20453;-59
2021/07/05 08:54:12;;;;;;;3.33;2.57;;;;;;;;;;5034708;28;20450;-59
2021/07/05 08:56:39;;;;;;;2.90;2.40;;;;;;;;;;5036186;28;20511;-59
2021/07/05 08:59:07;;;;;;;2.80;2.10;;;;;;;;;;5036766;28;20904;-60
2021/07/05 09:01:35;;;;;;;4.20;2.20;;;;;;;;;;5036189;28;20445;-59
2021/07/05 09:04:02;;;;;;;3.10;1.80;;;;;;;;;;5035501;28;21011;-58
2021/07/05 09:06:31;;;;;;;2.00;1.80;;;;;;;;;;5035659;28;20459;-59
2021/07/05 09:09:11;;;;;;;2.80;2.60;;;;;;;;;;5035644;28;20530;-58
2021/07/05 09:11:39;;;;;;;2.83;2.30;;;;;;;;;;5035785;28;20463;-58
2021/07/05 09:14:12;;;;;;;3.90;2.50;;;;;;;;;;5035575;28;20449;-58
2021/07/05 09:16:40;;;;;;;3.67;2.40;;;;;;;;;;5035435;28;20443;-58
2021/07/05 09:19:14;;;;;;;3.33;2.60;;;;;;;;;;5035667;28;20485;-58
2021/07/05 09:21:45;;;;;;;3.87;2.70;;;;;;;;;;5035577;28;20437;-57
2021/07/05 09:24:13;;;;;;;2.30;2.20;;;;;;;;;;5035010;28;20930;-59
2021/07/05 09:26:41;;;;;;;2.70;2.50;;;;;;;;;;5035023;28;20849;-59
2021/07/05 09:29:19;;;;;;;5.03;2.50;;;;;;;;;;5035875;28;20479;-59
2021/07/05 09:31:49;;;;;;;2.80;2.60;;;;;;;;;;5035649;28;20801;-59
2021/07/05 09:34:18;;;;;;;2.67;2.40;;;;;;;;;;5036308;28;20496;-58
2021/07/05 09:36:45;;;;;;;2.93;2.63;;;;;;;;;;5035570;28;20467;-57
2021/07/05 09:39:14;;;;;;;7.90;2.60;;;;;;;;;;5035544;28;20441;-58
2021/07/05 09:41:41;;;;;;;2.67;1.70;;;;;;;;;;5035202;28;20941;-58
2021/07/05 09:44:11;;;;;;;1.70;1.60;;;;;;;;;;5035709;28;20850;-59
2021/07/05 09:46:40;;;;;;;3.00;2.07;;;;;;;;;;5036235;28;20807;-59
2021/07/05 09:49:22;;;;;;;4.53;2.10;;;;;;;;;;5034833;28;20538;-59
2021/07/05 09:52:05;;;;;;;2.77;1.90;;;;;;;;;;5035403;28;20444;-58
2021/07/05 09:54:33;;;;;;;3.10;1.80;;;;;;;;;;5035062;28;20534;-59
2021/07/05 09:57:01;;;;;;;2.77;2.13;;;;;;;;;;5034992;28;20476;-59
2021/07/05 09:59:29;;;;;;;2.47;2.27;;;;;;;;;;5035079;28;20509;-59
2021/07/05 10:01:57;;;;;;;2.97;2.00;;;;;;;;;;5034891;28;20462;-61
2021/07/05 10:04:27;;;;;;;2.80;2.60;;;;;;;;;;5034980;28;20520;-62
2021/07/05 10:06:55;;;;;;;4.03;2.90;;;;;;;;;;5035059;28;20823;-60
2021/07/05 10:09:32;;;;;;;7.43;4.33;;;;;;;;;;5035397;28;21022;-59
2021/07/05 10:12:14;;;;;;;4.73;2.90;;;;;;;;;;5034524;28;20457;-61
2021/07/05 10:14:42;;;;;;;7.67;2.63;;;;;;;;;;5034615;28;20436;-61
2021/07/05 10:17:14;;;;;;;3.00;2.50;;;;;;;;;;5034431;28;20500;-60
2021/07/05 10:19:43;;;;;;;2.90;2.67;;;;;;;;;;5034534;28;20524;-62
2021/07/05 10:22:12;;;;;;;2.90;2.57;;;;;;;;;;5034774;28;20445;-60
2021/07/05 10:24:41;;;;;;;6.37;5.17;;;;;;;;;;5034358;28;20480;-61
2021/07/05 10:27:09;;;;;;;5.07;3.50;;;;;;;;;;5033893;28;21001;-59
2021/07/05 10:29:38;;;;;;;7.30;4.17;;;;;;;;;;5034545;28;20500;-60
2021/07/05 10:32:06;;;;;;;2.53;2.33;;;;;;;;;;5034324;28;20500;-60
2021/07/05 10:34:33;;;;;;;3.30;3.00;;;;;;;;;;5034526;28;20495;-61
2021/07/05 10:37:03;;;;;;;4.83;3.50;;;;;;;;;;5034247;28;20477;-61
2021/07/05 10:39:31;;;;;;;4.80;3.70;;;;;;;;;;5034623;28;20453;-60
2021/07/05 10:41:58;;;;;;;3.50;2.57;;;;;;;;;;5033931;28;20493;-61
2021/07/05 10:44:41;;;;;;;3.53;2.70;;;;;;;;;;5034387;28;20456;-62
2021/07/05 10:47:08;;;;;;;4.30;2.30;;;;;;;;;;5034185;28;20829;-59
2021/07/05 10:49:47;;;;;;;3.30;1.80;;;;;;;;;;5033805;28;20503;-59
2021/07/05 10:52:18;;;;;;;2.73;2.47;;;;;;;;;;5033636;28;20433;-60
2021/07/05 10:54:47;;;;;;;3.23;1.93;;;;;;;;;;5034258;28;20457;-60
2021/07/05 10:57:15;;;;;;;3.20;1.70;;;;;;;;;;5033849;28;20972;-60
2021/07/05 10:59:43;;;;;;;1.87;1.70;;;;;;;;;;5034226;28;20437;-59
2021/07/05 11:02:44;;;;;;;2.70;2.30;;;;;;;;;;5033662;28;20444;-59
2021/07/05 11:05:29;;;;;;;3.20;3.00;;;;;;;;;;4953732;29;20797;-61
2021/07/05 11:07:58;;;;;;;5.53;3.27;;;;;;;;;;4953862;29;20914;-59
2021/07/05 11:10:27;;;;;;;5.67;2.93;;;;;;;;;;5000733;28;20453;-60
2021/07/05 11:12:59;;;;;;;4.10;2.40;;;;;;;;;;5033622;28;20499;-59
2021/07/05 11:15:47;;;;;;;4.03;2.50;;;;;;;;;;5033865;28;20838;-58
2021/07/05 11:18:29;;;;;;;2.80;2.60;;;;;;;;;;5027951;28;20476;-60
2021/07/05 11:20:56;;;;;;;3.27;3.07;;;;;;;;;;5033539;28;20499;-58
2021/07/05 11:23:25;;;;;;;4.10;2.63;;;;;;;;;;5033849;28;20530;-59
2021/07/05 11:26:17;;;;;;;2.50;2.27;;;;;;;;;;5033324;28;20449;-60
2021/07/05 11:28:44;;;;;;;2.47;2.23;;;;;;;;;;5033033;28;20486;-59
2021/07/05 11:31:20;;;;;;;2.20;2.00;;;;;;;;;;5033632;28;20454;-58
2021/07/05 11:33:47;;;;;;;2.90;2.57;;;;;;;;;;5033461;28;20542;-58
2021/07/05 11:36:21;;;;;;;5.03;2.70;;;;;;;;;;5033847;28;20858;-58
2021/07/05 11:38:59;;;;;;;3.63;2.10;;;;;;;;;;5033211;28;20484;-59
2021/07/05 11:41:28;;;;;;;2.23;2.03;;;;;;;;;;5032804;28;20443;-59
2021/07/05 11:44:01;;;;;;;2.23;2.03;;;;;;;;;;5032570;28;20449;-58
2021/07/05 11:46:48;;;;;;;2.00;1.90;;;;;;;;;;5032478;28;20486;-59
2021/07/05 11:49:15;;;;;;;2.87;2.40;;;;;;;;;;5032217;28;20946;-60
2021/07/05 11:51:45;;;;;;;2.30;2.00;;;;;;;;;;5033029;28;20453;-59
2021/07/05 11:54:16;;;;;;;2.17;1.43;;;;;;;;;;5032584;28;20552;-59
2021/07/05 11:56:43;;;;;;;2.93;1.60;;;;;;;;;;5032796;28;20487;-59
2021/07/05 11:59:12;;;;;;;1.73;0.90;;;;;;;;;;5032742;28;20442;-57
2021/07/05 12:01:40;;;;;;;1.77;1.13;;;;;;;;;;5032567;28;20502;-58
2021/07/05 12:04:08;;;;;;;1.87;1.07;;;;;;;;;;5032884;28;20454;-58
2021/07/05 12:06:36;;;;;;;1.30;0.97;;;;;;;;;;5032776;28;20446;-58
2021/07/05 12:09:05;;;;;;;1.27;1.17;;;;;;;;;;5032877;28;20489;-58
2021/07/05 12:11:38;;;;;;;1.90;1.40;;;;;;;;;;5033191;28;20450;-57
2021/07/05 12:14:06;;;;;;;1.33;1.10;;;;;;;;;;5032884;28;20452;-58
2021/07/05 12:16:33;;;;;;;1.30;1.10;;;;;;;;;;5032384;28;20450;-58
2021/07/05 12:19:02;;;;;;;2.80;1.80;;;;;;;;;;5032358;28;20940;-58
2021/07/05 12:21:33;;;;;;;1.17;0.97;;;;;;;;;;5032752;28;20536;-58
2021/07/05 12:24:17;;;;;;;2.80;1.00;;;;;;;;;;5032836;28;20853;-58
2021/07/05 12:26:47;;;;;;;1.60;1.33;;;;;;;;;;5032746;28;20466;-59
2021/07/05 12:29:16;;;;;;;2.73;1.00;;;;;;;;;;5034604;28;20482;-59
2021/07/05 12:31:59;;;;;;;1.93;0.93;;;;;;;;;;5036605;28;20455;-58
2021/07/05 12:34:38;;;;;;;2.20;1.10;;;;;;;;;;5036277;28;20922;-59
2021/07/05 12:37:06;;;;;;;2.03;1.33;;;;;;;;;;5036293;28;20972;-58
2021/07/05 12:39:43;;;;;;;1.60;1.10;;;;;;;;;;5036742;28;20441;-58
2021/07/05 12:42:21;;;;;;;1.10;1.00;;;;;;;;;;5036317;28;20432;-58
2021/07/05 12:44:48;;;;;;;1.20;0.97;;;;;;;;;;5035992;28;20780;-57
2021/07/05 12:47:16;;;;;;;1.27;1.17;;;;;;;;;;5036149;28;20464;-58
2021/07/05 12:49:43;;;;;;;1.33;1.23;;;;;;;;;;5036158;28;20481;-57
2021/07/05 12:52:11;;;;;;;1.87;1.77;;;;;;;;;;5036023;28;20505;-58
2021/07/05 12:54:39;;;;;;;1.50;1.17;;;;;;;;;;5035922;28;20458;-57
2021/07/05 12:57:07;;;;;;;2.23;0.93;;;;;;;;;;5035710;28;20504;-58
2021/07/05 12:59:36;;;;;;;1.57;1.10;;;;;;;;;;5035809;28;20444;-57
2021/07/05 13:02:03;;;;;;;1.90;1.70;;;;;;;;;;5035942;28;20809;-59
2021/07/05 13:04:31;;;;;;;2.37;1.80;;;;;;;;;;5036085;28;20446;-58
2021/07/05 13:07:01;;;;;;;4.33;1.70;;;;;;;;;;5035911;28;20478;-58
2021/07/05 13:09:29;;;;;;;2.27;2.07;;;;;;;;;;5035936;28;20856;-58
2021/07/05 13:11:58;;;;;;;2.60;1.87;;;;;;;;;;5035388;28;20862;-58
2021/07/05 13:14:27;;;;;;;3.00;1.90;;;;;;;;;;5035764;28;20480;-57
2021/07/05 13:17:06;;;;;;;1.97;1.83;;;;;;;;;;5035200;28;20513;-59
2021/07/05 13:19:34;;;;;;;2.13;1.50;;;;;;;;;;5035620;28;20518;-59
2021/07/05 13:22:13;;;;;;;1.93;1.37;;;;;;;;;;5035276;28;20969;-59
2021/07/05 13:24:43;;;;;;;1.50;1.20;;;;;;;;;;5035375;28;20939;-59
2021/07/05 13:27:16;;;;;;;1.33;1.00;;;;;;;;;;5035456;28;20469;-59
2021/07/05 13:29:43;;;;;;;1.13;1.00;;;;;;;;;;5035128;28;21043;-59
2021/07/05 13:32:15;;;;;;;2.53;1.30;;;;;;;;;;5035893;28;20771;-58
2021/07/05 13:34:44;;;;;;;1.67;1.50;;;;;;;;;;5035716;28;20435;-59
2021/07/05 13:37:12;;;;;;;2.53;1.53;;;;;;;;;;5034987;28;20867;-58
2021/07/05 13:39:40;;;;;;;3.47;1.60;;;;;;;;;;5034731;28;20507;-58
2021/07/05 13:42:09;;;;;;;1.10;1.00;;;;;;;;;;5036492;28;20441;-58
2021/07/05 13:44:36;;;;;;;1.90;1.27;;;;;;;;;;5036354;28;20491;-59
2021/07/05 13:47:28;;;;;;;1.60;1.30;;;;;;;;;;5036132;28;20541;-59
2021/07/05 13:50:13;;;;;;;1.43;1.27;;;;;;;;;;5016418;28;20483;-59
2021/07/05 13:52:43;;;;;;;1.43;1.03;;;;;;;;;;5035845;28;20437;-58
2021/07/05 13:55:27;;;;;;;1.10;0.90;;;;;;;;;;5035093;28;20499;-57
2021/07/05 13:57:54;;;;;;;1.10;1.00;;;;;;;;;;5035216;28;20465;-59
2021/07/05 14:00:22;;;;;;;1.40;1.10;;;;;;;;;;5034870;28;20449;-58
2021/07/05 14:02:49;;;;;;;1.10;1.00;;;;;;;;;;5035265;28;20506;-58
2021/07/05 14:05:18;;;;;;;0.73;0.63;;;;;;;;;;5034638;28;20896;-58
2021/07/05 14:07:46;;;;;;;1.03;0.80;;;;;;;;;;5034773;28;20472;-58
2021/07/05 14:10:14;;;;;;;0.90;0.80;;;;;;;;;;5034604;28;20480;-58
2021/07/05 14:12:41;;;;;;;1.20;0.80;;;;;;;;;;5034971;28;20518;-58
2021/07/05 14:15:09;;;;;;;1.40;1.10;;;;;;;;;;5034616;28;20450;-59
2021/07/05 14:17:36;;;;;;;2.00;0.90;;;;;;;;;;5034374;28;20966;-58
2021/07/05 14:20:04;;;;;;;0.80;0.80;;;;;;;;;;5034754;28;20528;-57
2021/07/05 14:22:33;;;;;;;1.17;1.07;;;;;;;;;;5034185;28;20535;-58
2021/07/05 14:25:00;;;;;;;3.33;0.90;;;;;;;;;;5034437;28;20447;-59
2021/07/05 14:27:27;;;;;;;1.03;0.93;;;;;;;;;;5034489;28;20570;-58
2021/07/05 14:29:55;;;;;;;1.77;0.77;;;;;;;;;;5058765;22;20487;-60
2021/07/05 14:32:22;;;;;;;1.23;1.10;;;;;;;;;;5034428;28;20440;-62
2021/07/05 14:34:49;;;;;;;1.00;0.80;;;;;;;;;;5034366;28;20453;-60
2021/07/05 14:37:17;;;;;;;1.10;0.97;;;;;;;;;;5034214;28;20446;-63
2021/07/05 14:39:45;;;;;;;2.07;0.90;;;;;;;;;;5034321;28;20459;-62
2021/07/05 14:42:13;;;;;;;1.27;1.10;;;;;;;;;;5035231;28;20447;-63
2021/07/05 14:44:42;;;;;;;1.30;0.80;;;;;;;;;;5034446;28;20940;-62
2021/07/05 14:47:10;;;;;;;1.20;1.10;;;;;;;;;;5034115;28;20912;-62
2021/07/05 14:49:37;;;;;;;1.10;1.00;;;;;;;;;;5034271;28;20581;-61
2021/07/05 14:52:05;;;;;;;2.17;1.60;;;;;;;;;;5033953;28;20443;-62